Time;durP1;ratioP1;P1;durP2;ratioP2;P2;SDS_P1;SDS_P2;PMS_P1;PMS_P2;Temp;Humidity;BMP_temperature;BMP_pressure;BME280_temperature;BME280_humidity;BME280_pressure;Samples;Min_cycle;Max_cycle;Signal;HPM_P1;HPM_P2
2022/09/13 00:02:23;;;;;;;1.80;1.70;;;;;;;;;;5135728;27;20195;-71
2022/09/13 00:04:51;;;;;;;1.63;1.52;;;;;;;;;;5140855;27;20202;-71
2022/09/13 00:07:18;;;;;;;1.60;1.50;;;;;;;;;;5141748;27;20209;-71
2022/09/13 00:09:45;;;;;;;2.13;1.80;;;;;;;;;;5142057;27;20202;-72
2022/09/13 00:12:13;;;;;;;1.88;1.77;;;;;;;;;;5141761;27;20226;-71
2022/09/13 00:14:41;;;;;;;1.50;1.40;;;;;;;;;;5141460;27;20203;-71
2022/09/13 00:17:09;;;;;;;1.67;1.58;;;;;;;;;;5141642;27;20468;-71
2022/09/13 00:19:36;;;;;;;1.83;1.45;;;;;;;;;;5141287;27;20213;-71
2022/09/13 00:22:05;;;;;;;1.50;1.40;;;;;;;;;;5141070;27;20206;-70
2022/09/13 00:24:33;;;;;;;1.70;1.60;;;;;;;;;;5141580;27;20249;-71
2022/09/13 00:27:00;;;;;;;1.70;1.60;;;;;;;;;;5141040;27;20234;-70
2022/09/13 00:29:28;;;;;;;1.67;1.58;;;;;;;;;;5129286;27;20210;-74
2022/09/13 00:31:57;;;;;;;1.70;1.60;;;;;;;;;;5120064;28;20227;-71
2022/09/13 00:34:25;;;;;;;1.45;1.35;;;;;;;;;;5128578;27;20238;-71
2022/09/13 00:36:52;;;;;;;1.60;1.50;;;;;;;;;;5137508;27;20203;-70
2022/09/13 00:39:19;;;;;;;1.70;1.60;;;;;;;;;;5136068;27;20206;-70
2022/09/13 00:41:47;;;;;;;1.65;1.55;;;;;;;;;;5140396;27;20210;-71
2022/09/13 00:44:32;;;;;;;1.48;1.38;;;;;;;;;;5140141;27;20221;-71
2022/09/13 00:47:02;;;;;;;1.50;1.40;;;;;;;;;;5140086;27;20202;-70
2022/09/13 00:49:32;;;;;;;1.67;1.58;;;;;;;;;;5140628;27;20198;-71
2022/09/13 00:52:05;;;;;;;1.70;1.60;;;;;;;;;;5141052;27;20261;-71
2022/09/13 00:54:34;;;;;;;1.70;1.60;;;;;;;;;;5140584;27;20590;-70
2022/09/13 00:57:02;;;;;;;1.60;1.50;;;;;;;;;;5140371;27;20198;-71
2022/09/13 00:59:31;;;;;;;1.63;1.52;;;;;;;;;;5140397;27;20525;-71
2022/09/13 01:01:59;;;;;;;1.63;1.52;;;;;;;;;;5139545;27;20198;-71
2022/09/13 01:04:29;;;;;;;1.70;1.60;;;;;;;;;;5140128;27;20206;-72
2022/09/13 01:06:59;;;;;;;1.50;1.33;;;;;;;;;;5140711;27;20590;-71
2022/09/13 01:09:27;;;;;;;1.70;1.60;;;;;;;;;;5140379;27;20206;-72
2022/09/13 01:11:58;;;;;;;1.70;1.60;;;;;;;;;;5140280;27;20504;-71
2022/09/13 01:14:26;;;;;;;1.67;1.58;;;;;;;;;;5139787;27;20225;-71
2022/09/13 01:16:53;;;;;;;2.33;1.60;;;;;;;;;;5140189;27;20333;-71
2022/09/13 01:19:21;;;;;;;1.70;1.60;;;;;;;;;;5139902;27;20209;-71
2022/09/13 01:22:06;;;;;;;1.80;1.70;;;;;;;;;;5139884;27;20206;-71
2022/09/13 01:24:48;;;;;;;2.00;1.40;;;;;;;;;;5125460;27;20410;-71
2022/09/13 01:27:33;;;;;;;1.70;1.60;;;;;;;;;;5136016;27;20206;-72
2022/09/13 01:30:12;;;;;;;1.70;1.60;;;;;;;;;;5139724;27;20575;-71
2022/09/13 01:32:51;;;;;;;1.40;1.30;;;;;;;;;;5139517;27;20234;-71
2022/09/13 01:35:23;;;;;;;1.52;1.42;;;;;;;;;;5139890;27;20603;-72
2022/09/13 01:37:53;;;;;;;1.70;1.60;;;;;;;;;;5139645;27;20210;-71
2022/09/13 01:40:36;;;;;;;1.70;1.60;;;;;;;;;;5139815;27;20213;-72
2022/09/13 01:43:21;;;;;;;2.38;1.58;;;;;;;;;;5132640;27;20198;-71
2022/09/13 01:45:54;;;;;;;1.48;1.38;;;;;;;;;;5139440;27;20590;-71
2022/09/13 01:48:23;;;;;;;1.65;1.55;;;;;;;;;;5139067;27;20207;-71
2022/09/13 01:50:53;;;;;;;2.10;1.40;;;;;;;;;;5138964;27;20579;-71
2022/09/13 01:53:25;;;;;;;1.70;1.50;;;;;;;;;;5129144;27;20609;-70
2022/09/13 01:55:57;;;;;;;1.75;1.65;;;;;;;;;;5138736;27;20206;-70
2022/09/13 01:58:29;;;;;;;1.40;1.30;;;;;;;;;;5139226;27;20202;-70
2022/09/13 02:01:04;;;;;;;1.60;1.50;;;;;;;;;;5139302;27;20279;-70
2022/09/13 02:03:34;;;;;;;1.80;1.70;;;;;;;;;;5139167;27;20590;-70
2022/09/13 02:06:03;;;;;;;1.40;1.30;;;;;;;;;;5139595;27;20608;-70
2022/09/13 02:08:36;;;;;;;1.58;1.48;;;;;;;;;;5138949;27;20491;-70
2022/09/13 02:11:07;;;;;;;1.42;1.33;;;;;;;;;;5139065;27;20659;-71
2022/09/13 02:13:36;;;;;;;1.45;1.40;;;;;;;;;;5137704;27;20222;-71
2022/09/13 02:16:08;;;;;;;1.50;1.40;;;;;;;;;;5138652;27;20206;-70
2022/09/13 02:18:36;;;;;;;1.65;1.55;;;;;;;;;;5137493;27;20574;-70
2022/09/13 02:21:08;;;;;;;1.95;1.75;;;;;;;;;;5139011;27;20213;-70
2022/09/13 02:23:39;;;;;;;1.55;1.45;;;;;;;;;;5138139;27;20198;-71
2022/09/13 02:26:07;;;;;;;1.60;1.50;;;;;;;;;;5138797;27;20281;-71
2022/09/13 02:28:37;;;;;;;3.15;1.52;;;;;;;;;;5139027;27;20202;-72
2022/09/13 02:31:09;;;;;;;1.60;1.50;;;;;;;;;;5138559;27;20203;-70
2022/09/13 02:33:38;;;;;;;1.73;1.63;;;;;;;;;;5130204;27;20238;-70
2022/09/13 02:36:06;;;;;;;1.50;1.40;;;;;;;;;;5117322;28;20206;-70
2022/09/13 02:38:38;;;;;;;1.63;1.52;;;;;;;;;;5117886;28;20203;-71
2022/09/13 02:41:08;;;;;;;1.85;1.55;;;;;;;;;;5117946;28;20205;-71
2022/09/13 02:43:38;;;;;;;1.92;1.45;;;;;;;;;;5118066;28;20263;-71
2022/09/13 02:46:16;;;;;;;1.98;1.60;;;;;;;;;;5117501;28;20199;-70
2022/09/13 02:48:49;;;;;;;1.50;1.40;;;;;;;;;;5118280;28;20229;-72
2022/09/13 02:51:19;;;;;;;1.60;1.50;;;;;;;;;;5118066;28;20579;-72
2022/09/13 02:53:48;;;;;;;1.83;1.73;;;;;;;;;;5117852;28;20234;-71
2022/09/13 02:56:21;;;;;;;1.60;1.50;;;;;;;;;;5117729;28;20210;-71
2022/09/13 02:58:51;;;;;;;1.60;1.50;;;;;;;;;;5117141;28;20199;-71
2022/09/13 03:01:21;;;;;;;1.70;1.60;;;;;;;;;;5117584;28;20238;-71
2022/09/13 03:03:48;;;;;;;1.65;1.55;;;;;;;;;;5117493;28;20203;-71
2022/09/13 03:06:22;;;;;;;1.70;1.60;;;;;;;;;;5118235;28;20272;-71
2022/09/13 03:08:49;;;;;;;1.50;1.40;;;;;;;;;;5117989;28;20195;-70
2022/09/13 03:11:21;;;;;;;1.52;1.42;;;;;;;;;;5117996;28;20203;-70
2022/09/13 03:13:57;;;;;;;1.58;1.48;;;;;;;;;;5117122;28;20234;-70
2022/09/13 03:16:40;;;;;;;1.77;1.67;;;;;;;;;;5117814;28;20613;-71
2022/09/13 03:19:23;;;;;;;1.77;1.67;;;;;;;;;;5114437;28;20203;-70
2022/09/13 03:22:00;;;;;;;1.60;1.50;;;;;;;;;;5117969;28;20217;-70
2022/09/13 03:24:31;;;;;;;1.70;1.60;;;;;;;;;;5119346;28;20242;-71
2022/09/13 03:27:04;;;;;;;1.60;1.50;;;;;;;;;;5121536;28;20203;-70
2022/09/13 03:29:34;;;;;;;1.50;1.40;;;;;;;;;;5121655;28;20295;-71
2022/09/13 03:32:15;;;;;;;1.52;1.42;;;;;;;;;;5122001;28;20447;-71
2022/09/13 03:34:48;;;;;;;1.48;1.38;;;;;;;;;;5138069;27;20496;-71
2022/09/13 03:37:18;;;;;;;1.70;1.60;;;;;;;;;;5142472;27;20205;-71
2022/09/13 03:39:49;;;;;;;1.67;1.58;;;;;;;;;;5139392;27;20209;-71
2022/09/13 03:42:19;;;;;;;1.60;1.50;;;;;;;;;;5121473;28;20195;-71
2022/09/13 03:44:48;;;;;;;1.60;1.50;;;;;;;;;;5121408;28;20771;-71
2022/09/13 03:47:16;;;;;;;1.67;1.58;;;;;;;;;;5120574;28;20218;-71
2022/09/13 03:49:45;;;;;;;1.60;1.50;;;;;;;;;;5121000;28;20573;-71
2022/09/13 03:52:13;;;;;;;1.77;1.67;;;;;;;;;;5120411;28;20223;-71
2022/09/13 03:54:40;;;;;;;1.60;1.50;;;;;;;;;;5120727;28;20203;-71
2022/09/13 03:57:09;;;;;;;1.75;1.45;;;;;;;;;;5120189;28;20218;-71
2022/09/13 03:59:37;;;;;;;1.50;1.40;;;;;;;;;;5120705;28;20199;-71
2022/09/13 04:02:06;;;;;;;1.75;1.63;;;;;;;;;;5120379;28;20462;-71
2022/09/13 04:04:33;;;;;;;1.58;1.48;;;;;;;;;;5120738;28;20207;-71
2022/09/13 04:07:03;;;;;;;1.58;1.48;;;;;;;;;;5120504;28;20199;-71
2022/09/13 04:09:30;;;;;;;1.70;1.60;;;;;;;;;;5140614;27;20538;-71
2022/09/13 04:11:58;;;;;;;1.60;1.50;;;;;;;;;;5135468;27;20538;-71
2022/09/13 04:14:27;;;;;;;1.60;1.50;;;;;;;;;;5120319;28;20199;-71
2022/09/13 04:16:54;;;;;;;1.60;1.50;;;;;;;;;;5119335;28;20203;-71
2022/09/13 04:19:22;;;;;;;1.70;1.60;;;;;;;;;;5119845;28;20283;-71
2022/09/13 04:21:49;;;;;;;1.90;1.80;;;;;;;;;;5119996;28;20215;-71
2022/09/13 04:24:18;;;;;;;1.67;1.58;;;;;;;;;;5119774;28;20586;-71
2022/09/13 04:26:49;;;;;;;1.70;1.60;;;;;;;;;;5119564;28;20595;-71
2022/09/13 04:29:17;;;;;;;1.50;1.40;;;;;;;;;;5118333;28;20210;-70
2022/09/13 04:31:44;;;;;;;1.58;1.48;;;;;;;;;;5118819;28;20487;-71
2022/09/13 04:34:11;;;;;;;1.80;1.70;;;;;;;;;;5118921;28;20234;-71
2022/09/13 04:36:39;;;;;;;1.60;1.50;;;;;;;;;;5137130;27;20202;-71
2022/09/13 04:39:06;;;;;;;1.88;1.77;;;;;;;;;;5139210;27;20206;-71
2022/09/13 04:41:35;;;;;;;1.60;1.50;;;;;;;;;;5139457;27;20202;-71
2022/09/13 04:44:03;;;;;;;1.50;1.40;;;;;;;;;;5138913;27;20209;-71
2022/09/13 04:46:30;;;;;;;2.50;1.83;;;;;;;;;;5139153;27;20213;-70
2022/09/13 04:48:57;;;;;;;1.80;1.70;;;;;;;;;;5138612;27;20504;-71
2022/09/13 04:51:25;;;;;;;1.80;1.70;;;;;;;;;;5137926;27;20205;-70
2022/09/13 04:53:54;;;;;;;1.70;1.60;;;;;;;;;;5118904;28;20238;-71
2022/09/13 04:56:22;;;;;;;1.70;1.60;;;;;;;;;;5118731;28;20203;-71
2022/09/13 04:58:51;;;;;;;1.73;1.63;;;;;;;;;;5117846;28;20598;-71
2022/09/13 05:01:18;;;;;;;1.50;1.40;;;;;;;;;;5117726;28;20610;-71
2022/09/13 05:03:46;;;;;;;1.77;1.67;;;;;;;;;;5116872;28;20576;-71
2022/09/13 05:06:14;;;;;;;1.65;1.55;;;;;;;;;;5132345;27;20213;-71
2022/09/13 05:08:41;;;;;;;1.77;1.67;;;;;;;;;;5137162;27;20209;-71
2022/09/13 05:11:09;;;;;;;1.50;1.40;;;;;;;;;;5137629;27;20768;-71
2022/09/13 05:13:36;;;;;;;1.60;1.50;;;;;;;;;;5136691;27;20229;-71
2022/09/13 05:16:06;;;;;;;1.75;1.65;;;;;;;;;;5136596;27;20518;-71
2022/09/13 05:18:33;;;;;;;1.65;1.55;;;;;;;;;;5137184;27;20460;-71
2022/09/13 05:21:02;;;;;;;1.60;1.50;;;;;;;;;;5137123;27;20206;-71
2022/09/13 05:23:30;;;;;;;1.73;1.63;;;;;;;;;;5136604;27;20205;-70
2022/09/13 05:25:58;;;;;;;1.60;1.50;;;;;;;;;;5136900;27;20198;-71
2022/09/13 05:28:25;;;;;;;1.60;1.50;;;;;;;;;;5136623;27;20213;-71
2022/09/13 05:30:57;;;;;;;1.60;1.50;;;;;;;;;;5136965;27;20209;-71
2022/09/13 05:33:25;;;;;;;1.60;1.50;;;;;;;;;;5120118;27;20226;-71
2022/09/13 05:35:53;;;;;;;1.65;1.55;;;;;;;;;;5136845;27;20213;-70
2022/09/13 05:38:21;;;;;;;2.00;1.90;;;;;;;;;;5136973;27;20550;-70
2022/09/13 05:40:49;;;;;;;2.53;1.90;;;;;;;;;;5136218;27;20230;-71
2022/09/13 05:43:16;;;;;;;1.80;1.65;;;;;;;;;;5136527;27;20198;-70
2022/09/13 05:45:43;;;;;;;2.65;2.10;;;;;;;;;;5136366;27;20202;-71
2022/09/13 05:48:11;;;;;;;4.38;2.30;;;;;;;;;;5136170;27;20225;-72
2022/09/13 05:50:40;;;;;;;2.42;2.05;;;;;;;;;;5126793;27;20203;-71
2022/09/13 05:53:07;;;;;;;2.92;2.40;;;;;;;;;;5135942;27;20230;-71
2022/09/13 05:55:35;;;;;;;2.90;2.53;;;;;;;;;;5136703;27;20217;-73
2022/09/13 05:58:03;;;;;;;3.00;2.70;;;;;;;;;;5136079;27;20293;-71
2022/09/13 06:00:31;;;;;;;2.90;2.60;;;;;;;;;;5135749;27;20198;-71
2022/09/13 06:02:59;;;;;;;3.85;2.88;;;;;;;;;;5136188;27;20237;-71
2022/09/13 06:05:26;;;;;;;3.42;2.90;;;;;;;;;;5137187;27;20807;-71
2022/09/13 06:07:55;;;;;;;4.13;2.70;;;;;;;;;;5136472;27;20202;-71
2022/09/13 06:10:23;;;;;;;4.35;2.80;;;;;;;;;;5136442;27;20202;-71
2022/09/13 06:12:51;;;;;;;5.28;3.15;;;;;;;;;;5127644;27;20210;-71
2022/09/13 06:15:19;;;;;;;4.78;3.55;;;;;;;;;;5136085;27;20777;-71
2022/09/13 06:17:46;;;;;;;4.28;3.20;;;;;;;;;;5136062;27;20221;-71
2022/09/13 06:20:14;;;;;;;5.68;3.25;;;;;;;;;;5118880;27;20202;-71
2022/09/13 06:22:41;;;;;;;5.60;3.50;;;;;;;;;;5135359;27;20617;-72
2022/09/13 06:25:10;;;;;;;6.28;3.80;;;;;;;;;;5137190;27;20216;-71
2022/09/13 06:27:38;;;;;;;5.10;3.45;;;;;;;;;;5136943;27;20198;-71
2022/09/13 06:30:07;;;;;;;4.50;3.65;;;;;;;;;;5136912;27;20206;-71
2022/09/13 06:32:35;;;;;;;5.28;3.88;;;;;;;;;;5136296;27;20202;-71
2022/09/13 06:35:02;;;;;;;5.82;3.42;;;;;;;;;;5136817;27;20226;-71
2022/09/13 06:37:29;;;;;;;4.45;3.60;;;;;;;;;;5136576;27;20229;-71
2022/09/13 06:39:57;;;;;;;4.47;3.60;;;;;;;;;;5136646;27;20202;-71
2022/09/13 06:42:27;;;;;;;5.38;3.72;;;;;;;;;;5136783;27;20624;-71
2022/09/13 06:44:54;;;;;;;5.60;3.88;;;;;;;;;;5136317;27;20602;-71
2022/09/13 06:47:22;;;;;;;5.93;3.67;;;;;;;;;;5122197;27;20199;-71
2022/09/13 06:49:49;;;;;;;6.72;4.10;;;;;;;;;;5125836;27;20255;-71
2022/09/13 06:52:17;;;;;;;5.55;4.30;;;;;;;;;;5135460;27;20206;-72
2022/09/13 06:54:44;;;;;;;5.63;4.50;;;;;;;;;;5136102;27;20222;-71
2022/09/13 06:57:12;;;;;;;7.28;4.82;;;;;;;;;;5136473;27;20209;-71
2022/09/13 06:59:40;;;;;;;7.60;4.60;;;;;;;;;;5135374;27;20498;-71
2022/09/13 07:02:08;;;;;;;6.18;4.57;;;;;;;;;;5135551;27;20700;-71
2022/09/13 07:04:35;;;;;;;6.43;4.35;;;;;;;;;;5135612;27;20590;-71
2022/09/13 07:07:03;;;;;;;8.02;4.68;;;;;;;;;;5134859;28;20750;-71
2022/09/13 07:09:30;;;;;;;6.88;4.28;;;;;;;;;;5135326;27;20213;-71
2022/09/13 07:11:58;;;;;;;6.53;4.30;;;;;;;;;;5135666;28;20206;-71
2022/09/13 07:14:26;;;;;;;5.82;4.70;;;;;;;;;;5135411;28;20228;-71
2022/09/13 07:16:55;;;;;;;6.25;4.30;;;;;;;;;;5135166;28;20213;-71
2022/09/13 07:19:25;;;;;;;6.45;4.32;;;;;;;;;;5135811;28;20218;-71
2022/09/13 07:21:52;;;;;;;5.72;4.55;;;;;;;;;;5135244;28;20228;-71
2022/09/13 07:24:21;;;;;;;6.28;4.75;;;;;;;;;;5136351;28;20198;-71
2022/09/13 07:26:48;;;;;;;6.18;4.30;;;;;;;;;;5136426;28;20209;-71
2022/09/13 07:29:17;;;;;;;5.28;4.03;;;;;;;;;;5135891;28;20202;-71
2022/09/13 07:31:46;;;;;;;6.78;4.55;;;;;;;;;;5136152;28;20242;-71
2022/09/13 07:34:15;;;;;;;6.25;4.05;;;;;;;;;;5135461;28;20269;-72
2022/09/13 07:36:43;;;;;;;6.47;4.30;;;;;;;;;;5134913;28;20206;-71
2022/09/13 07:39:11;;;;;;;6.20;4.45;;;;;;;;;;5134494;28;20201;-71
2022/09/13 07:41:38;;;;;;;5.88;4.18;;;;;;;;;;5133230;28;20749;-71
2022/09/13 07:44:07;;;;;;;6.93;4.22;;;;;;;;;;5134750;27;20199;-71
2022/09/13 07:46:42;;;;;;;4.82;3.83;;;;;;;;;;5135071;28;20268;-71
2022/09/13 07:49:10;;;;;;;5.72;4.32;;;;;;;;;;5135720;28;20308;-71
2022/09/13 07:51:40;;;;;;;5.55;4.20;;;;;;;;;;5135153;28;20266;-71
2022/09/13 07:54:08;;;;;;;5.38;3.85;;;;;;;;;;5134658;28;20222;-71
2022/09/13 07:56:37;;;;;;;6.05;4.15;;;;;;;;;;5134742;28;20203;-71
2022/09/13 07:59:05;;;;;;;6.05;4.22;;;;;;;;;;5134710;28;20270;-71
2022/09/13 08:01:35;;;;;;;6.53;4.45;;;;;;;;;;5133983;28;20210;-71
2022/09/13 08:04:04;;;;;;;5.38;4.47;;;;;;;;;;5134235;28;20201;-71
2022/09/13 08:06:32;;;;;;;6.30;4.13;;;;;;;;;;5134547;28;20226;-71
2022/09/13 08:09:01;;;;;;;6.43;4.65;;;;;;;;;;5134301;28;20194;-71
2022/09/13 08:11:30;;;;;;;5.07;4.28;;;;;;;;;;5135032;27;20209;-71
2022/09/13 08:13:58;;;;;;;6.10;4.28;;;;;;;;;;5138451;27;20229;-70
2022/09/13 08:16:26;;;;;;;4.78;4.28;;;;;;;;;;5137856;27;20206;-71
2022/09/13 08:18:54;;;;;;;4.88;3.70;;;;;;;;;;5137983;27;20212;-71
2022/09/13 08:21:22;;;;;;;5.13;4.03;;;;;;;;;;5138861;27;20213;-71
2022/09/13 08:23:50;;;;;;;5.80;4.35;;;;;;;;;;5137387;27;20210;-71
2022/09/13 08:26:18;;;;;;;5.25;3.97;;;;;;;;;;5137096;27;20214;-71
2022/09/13 08:28:46;;;;;;;5.85;4.38;;;;;;;;;;5137870;27;20594;-71
2022/09/13 08:31:16;;;;;;;4.45;3.85;;;;;;;;;;5135493;27;20203;-71
2022/09/13 08:33:44;;;;;;;5.53;3.80;;;;;;;;;;5128733;27;20226;-70
2022/09/13 08:36:12;;;;;;;4.68;3.95;;;;;;;;;;5117440;28;20203;-71
2022/09/13 08:38:39;;;;;;;6.53;4.20;;;;;;;;;;5117837;28;20211;-71
2022/09/13 08:41:18;;;;;;;5.10;4.10;;;;;;;;;;5118019;28;20636;-71
2022/09/13 08:43:50;;;;;;;4.35;3.80;;;;;;;;;;5116692;28;20225;-71
2022/09/13 08:46:22;;;;;;;4.68;4.18;;;;;;;;;;5116960;28;20198;-71
2022/09/13 08:48:51;;;;;;;5.03;3.70;;;;;;;;;;5116109;28;20497;-71
2022/09/13 08:51:26;;;;;;;4.93;3.90;;;;;;;;;;5116663;28;20572;-71
2022/09/13 08:53:53;;;;;;;5.95;3.90;;;;;;;;;;5116863;28;20233;-71
2022/09/13 08:56:23;;;;;;;4.85;3.72;;;;;;;;;;5117104;28;20203;-71
2022/09/13 08:59:00;;;;;;;5.63;4.32;;;;;;;;;;5116830;28;20205;-71
2022/09/13 09:01:34;;;;;;;5.22;4.03;;;;;;;;;;5116406;28;20536;-71
2022/09/13 09:04:07;;;;;;;5.90;3.72;;;;;;;;;;5116215;28;20210;-71
2022/09/13 09:06:35;;;;;;;5.10;3.50;;;;;;;;;;5116552;28;20574;-70
2022/09/13 09:09:05;;;;;;;4.60;3.97;;;;;;;;;;5116593;28;20712;-70
2022/09/13 09:11:35;;;;;;;5.07;3.80;;;;;;;;;;5116619;28;20199;-71
2022/09/13 09:14:07;;;;;;;6.00;4.20;;;;;;;;;;5117218;28;20223;-71
2022/09/13 09:16:38;;;;;;;4.32;3.90;;;;;;;;;;5115344;28;20205;-71
2022/09/13 09:19:11;;;;;;;5.07;3.78;;;;;;;;;;5116472;28;20230;-70
2022/09/13 09:21:39;;;;;;;5.30;3.78;;;;;;;;;;5116222;28;20203;-70
2022/09/13 09:24:07;;;;;;;5.95;3.95;;;;;;;;;;5116813;28;20195;-70
2022/09/13 09:26:34;;;;;;;4.45;4.05;;;;;;;;;;5116281;28;20210;-69
2022/09/13 09:29:06;;;;;;;4.03;3.63;;;;;;;;;;5116297;28;20203;-69
2022/09/13 09:31:38;;;;;;;4.93;3.75;;;;;;;;;;5115860;28;20203;-70
2022/09/13 09:34:12;;;;;;;5.75;3.63;;;;;;;;;;5127405;27;20742;-70
2022/09/13 09:36:42;;;;;;;4.70;3.80;;;;;;;;;;5136929;27;20197;-70
2022/09/13 09:39:12;;;;;;;5.25;3.92;;;;;;;;;;5136242;27;20534;-69
2022/09/13 09:41:39;;;;;;;4.15;3.72;;;;;;;;;;5136699;27;20194;-70
2022/09/13 09:44:14;;;;;;;3.75;3.42;;;;;;;;;;5134946;27;20202;-69
2022/09/13 09:46:44;;;;;;;4.43;3.60;;;;;;;;;;5134890;27;20217;-69
2022/09/13 09:55:22;;;;;;;4.03;3.63;;;;;;;;;;5134893;27;20704;-70
2022/09/13 09:57:54;;;;;;;3.50;3.20;;;;;;;;;;5135441;27;20206;-70
2022/09/13 10:00:22;;;;;;;4.07;3.50;;;;;;;;;;5135781;27;20210;-69
2022/09/13 10:02:53;;;;;;;3.80;3.40;;;;;;;;;;5134290;27;20217;-70
2022/09/13 10:05:22;;;;;;;3.83;3.10;;;;;;;;;;5135379;27;20195;-70
2022/09/13 10:44:37;;;;;;;3.92;3.50;;;;;;;;;;5097305;28;20249;-70
2022/09/13 10:47:05;;;;;;;4.75;3.33;;;;;;;;;;5094550;28;20540;-70
2022/09/13 10:49:37;;;;;;;3.83;3.53;;;;;;;;;;5094919;28;20638;-71
2022/09/13 10:52:19;;;;;;;4.00;3.30;;;;;;;;;;5094111;28;20199;-70
2022/09/13 10:54:47;;;;;;;3.63;3.33;;;;;;;;;;5092933;28;20222;-70
2022/09/13 10:57:28;;;;;;;3.90;3.50;;;;;;;;;;5103283;28;20203;-70
2022/09/13 10:59:57;;;;;;;3.80;3.22;;;;;;;;;;5112842;28;20218;-69
2022/09/13 11:02:37;;;;;;;3.40;3.10;;;;;;;;;;5113907;28;20506;-70
2022/09/13 11:05:14;;;;;;;4.18;3.40;;;;;;;;;;5113893;28;20621;-70
2022/09/13 11:07:48;;;;;;;3.70;3.30;;;;;;;;;;5113838;28;20564;-70
2022/09/13 11:10:20;;;;;;;3.45;3.15;;;;;;;;;;5114220;28;20199;-70
2022/09/13 11:12:50;;;;;;;3.38;3.08;;;;;;;;;;5113978;28;20199;-71
2022/09/13 11:15:26;;;;;;;3.60;3.30;;;;;;;;;;5113928;28;20706;-70
2022/09/13 11:18:14;;;;;;;3.95;3.53;;;;;;;;;;5112627;28;20202;-70
2022/09/13 11:20:46;;;;;;;3.67;3.38;;;;;;;;;;5113294;28;20257;-71
2022/09/13 11:23:29;;;;;;;4.35;3.88;;;;;;;;;;5113346;28;20265;-71
2022/09/13 11:26:04;;;;;;;4.80;3.30;;;;;;;;;;5112064;28;20194;-70
2022/09/13 11:28:43;;;;;;;3.90;3.60;;;;;;;;;;5093900;28;20306;-70
2022/09/13 11:31:22;;;;;;;4.57;3.35;;;;;;;;;;5092993;28;20207;-70
2022/09/13 11:33:53;;;;;;;3.47;3.20;;;;;;;;;;5093283;28;20203;-70
2022/09/13 11:36:30;;;;;;;4.35;3.20;;;;;;;;;;5094087;28;20358;-70
2022/09/13 11:39:04;;;;;;;3.50;3.20;;;;;;;;;;5113405;28;20213;-70
2022/09/13 11:41:38;;;;;;;4.57;3.72;;;;;;;;;;5114257;28;20203;-70
2022/09/13 11:44:19;;;;;;;3.75;3.30;;;;;;;;;;5122913;28;20230;-70
2022/09/13 11:46:53;;;;;;;3.78;3.47;;;;;;;;;;5131430;27;20690;-70
2022/09/13 11:49:38;;;;;;;3.47;3.15;;;;;;;;;;5117877;28;20229;-69
2022/09/13 11:52:10;;;;;;;3.50;3.20;;;;;;;;;;5117526;28;20328;-70
2022/09/13 11:54:47;;;;;;;3.58;3.28;;;;;;;;;;5118019;28;20222;-71
2022/09/13 11:57:17;;;;;;;5.00;3.63;;;;;;;;;;5126369;27;20209;-70
2022/09/13 11:59:47;;;;;;;3.33;3.03;;;;;;;;;;5137579;27;20483;-70
2022/09/13 12:02:19;;;;;;;3.28;2.97;;;;;;;;;;5137996;27;20209;-70
2022/09/13 12:04:50;;;;;;;4.25;3.20;;;;;;;;;;5137676;27;20222;-70
2022/09/13 12:07:25;;;;;;;3.45;3.03;;;;;;;;;;5127426;27;20552;-69
2022/09/13 12:09:54;;;;;;;3.50;3.20;;;;;;;;;;5117626;28;20206;-69
2022/09/13 12:12:25;;;;;;;3.38;3.00;;;;;;;;;;5116790;28;20263;-70
2022/09/13 12:14:57;;;;;;;3.50;3.20;;;;;;;;;;5116671;28;20309;-69
2022/09/13 12:17:30;;;;;;;3.50;3.17;;;;;;;;;;5127907;27;20255;-70
2022/09/13 12:19:59;;;;;;;3.42;2.70;;;;;;;;;;5138157;27;20239;-70
2022/09/13 12:22:28;;;;;;;3.60;3.30;;;;;;;;;;5136471;27;20210;-70
2022/09/13 12:24:57;;;;;;;3.20;2.90;;;;;;;;;;5137289;27;20652;-70
2022/09/13 12:27:28;;;;;;;3.75;3.00;;;;;;;;;;5125981;27;20717;-71
2022/09/13 12:29:57;;;;;;;3.60;3.17;;;;;;;;;;5116386;28;20207;-69
2022/09/13 12:32:24;;;;;;;3.28;2.97;;;;;;;;;;5115977;28;20641;-70
2022/09/13 12:34:57;;;;;;;3.58;3.28;;;;;;;;;;5113729;28;20246;-69
2022/09/13 12:37:35;;;;;;;3.42;2.97;;;;;;;;;;5124101;27;20203;-69
2022/09/13 12:40:16;;;;;;;3.50;3.20;;;;;;;;;;5136950;27;20293;-70
2022/09/13 12:43:06;;;;;;;3.40;3.10;;;;;;;;;;5137456;27;20212;-70
2022/09/13 12:45:49;;;;;;;3.40;3.00;;;;;;;;;;5130921;27;20198;-69
2022/09/13 12:48:25;;;;;;;3.20;2.90;;;;;;;;;;5119389;27;20230;-70
2022/09/13 12:51:02;;;;;;;3.42;3.03;;;;;;;;;;5116074;28;20301;-69
2022/09/13 12:53:55;;;;;;;3.33;2.88;;;;;;;;;;5115618;28;20293;-70
2022/09/13 12:56:34;;;;;;;3.13;2.65;;;;;;;;;;5116198;28;20253;-70
2022/09/13 12:59:28;;;;;;;3.35;3.05;;;;;;;;;;5136944;27;20220;-70
2022/09/13 13:01:57;;;;;;;3.20;2.90;;;;;;;;;;5071437;27;20674;-70
2022/09/13 13:04:26;;;;;;;4.78;3.33;;;;;;;;;;5135929;27;20247;-70
2022/09/13 13:06:57;;;;;;;4.70;3.30;;;;;;;;;;5132772;27;20479;-70
2022/09/13 13:09:27;;;;;;;3.30;3.00;;;;;;;;;;5116427;28;20210;-70
2022/09/13 13:11:57;;;;;;;3.60;3.30;;;;;;;;;;5115712;28;20210;-70
2022/09/13 13:14:42;;;;;;;3.40;3.10;;;;;;;;;;5115925;28;20563;-70
2022/09/13 13:17:28;;;;;;;3.78;3.38;;;;;;;;;;5121841;27;20198;-70
2022/09/13 13:19:56;;;;;;;3.97;3.50;;;;;;;;;;5135447;27;20293;-70
2022/09/13 13:22:42;;;;;;;3.30;3.00;;;;;;;;;;5135807;27;20230;-70
2022/09/13 13:25:25;;;;;;;3.28;2.97;;;;;;;;;;5115410;27;20191;-70
2022/09/13 13:27:54;;;;;;;3.75;3.20;;;;;;;;;;5111846;28;20252;-70
2022/09/13 13:30:56;;;;;;;3.95;3.20;;;;;;;;;;5114217;28;20199;-70
2022/09/13 13:33:25;;;;;;;3.78;3.30;;;;;;;;;;5117858;27;20477;-71
2022/09/13 13:35:52;;;;;;;3.95;3.50;;;;;;;;;;5135020;27;20218;-70
2022/09/13 13:38:41;;;;;;;3.55;3.20;;;;;;;;;;5134789;27;20209;-71
2022/09/13 13:41:29;;;;;;;3.22;2.92;;;;;;;;;;5128099;27;20268;-70
2022/09/13 13:43:58;;;;;;;3.13;2.85;;;;;;;;;;5125110;27;20225;-70
2022/09/13 13:46:27;;;;;;;3.50;3.20;;;;;;;;;;5114804;28;20432;-70
2022/09/13 13:48:55;;;;;;;3.63;3.33;;;;;;;;;;5114296;28;20595;-71
2022/09/13 13:51:24;;;;;;;4.47;3.25;;;;;;;;;;5115419;28;20677;-70
2022/09/13 13:53:53;;;;;;;3.55;3.25;;;;;;;;;;5122140;27;20198;-70
2022/09/13 13:56:24;;;;;;;3.40;2.90;;;;;;;;;;5134884;27;20215;-70
2022/09/13 13:58:55;;;;;;;3.80;3.40;;;;;;;;;;5133529;27;20213;-70
2022/09/13 14:01:26;;;;;;;3.38;3.08;;;;;;;;;;5133686;27;20700;-70
2022/09/13 14:04:14;;;;;;;3.67;3.13;;;;;;;;;;5127484;27;20207;-70
2022/09/13 14:06:46;;;;;;;3.38;3.08;;;;;;;;;;5080459;28;20240;-69
2022/09/13 14:09:23;;;;;;;4.07;2.90;;;;;;;;;;5114344;28;20206;-70
2022/09/13 14:11:58;;;;;;;3.38;3.08;;;;;;;;;;5114427;28;20270;-70
2022/09/13 14:14:35;;;;;;;3.40;3.10;;;;;;;;;;5125092;27;20238;-70
2022/09/13 14:17:16;;;;;;;3.30;3.00;;;;;;;;;;5134114;27;20257;-70
2022/09/13 14:19:45;;;;;;;3.25;2.95;;;;;;;;;;5132557;27;20293;-70
2022/09/13 14:22:17;;;;;;;3.10;2.80;;;;;;;;;;5132973;27;20518;-69
2022/09/13 14:24:47;;;;;;;3.05;2.72;;;;;;;;;;5119611;27;20574;-70
2022/09/13 14:27:16;;;;;;;3.25;2.72;;;;;;;;;;5106322;28;20207;-69
2022/09/13 14:29:45;;;;;;;4.38;2.95;;;;;;;;;;5112059;28;20203;-70
2022/09/13 14:32:17;;;;;;;3.08;2.75;;;;;;;;;;5113751;28;20294;-70
2022/09/13 14:34:52;;;;;;;2.97;2.67;;;;;;;;;;5112303;28;20503;-70
2022/09/13 14:37:21;;;;;;;3.25;3.00;;;;;;;;;;5113208;28;20348;-70
2022/09/13 14:39:56;;;;;;;3.35;3.05;;;;;;;;;;5113270;28;20293;-71
2022/09/13 14:42:25;;;;;;;2.97;2.72;;;;;;;;;;5114427;28;20306;-70
2022/09/13 14:44:53;;;;;;;3.00;2.80;;;;;;;;;;5125881;27;20268;-71
2022/09/13 14:47:25;;;;;;;2.88;2.67;;;;;;;;;;5134134;27;20293;-70
2022/09/13 14:49:55;;;;;;;3.28;2.80;;;;;;;;;;5134151;27;20238;-70
2022/09/13 14:52:27;;;;;;;2.63;2.42;;;;;;;;;;5134582;27;20782;-69
2022/09/13 14:54:56;;;;;;;2.72;2.53;;;;;;;;;;5122601;27;20199;-70
2022/09/13 14:57:27;;;;;;;2.90;2.70;;;;;;;;;;5132476;27;20268;-70
2022/09/13 14:59:56;;;;;;;2.50;2.30;;;;;;;;;;5125309;28;20202;-70
2022/09/13 15:02:27;;;;;;;3.60;2.88;;;;;;;;;;5134295;27;20298;-70
2022/09/13 15:04:55;;;;;;;3.30;2.97;;;;;;;;;;5134033;28;20282;-70
2022/09/13 15:07:28;;;;;;;4.75;3.30;;;;;;;;;;5134576;28;20681;-70
2022/09/13 15:10:06;;;;;;;3.35;3.05;;;;;;;;;;5133956;28;20261;-69
2022/09/13 15:12:33;;;;;;;3.20;2.85;;;;;;;;;;5133876;28;20298;-69
2022/09/13 15:15:19;;;;;;;3.05;2.85;;;;;;;;;;5129676;28;20198;-69
2022/09/13 15:17:55;;;;;;;3.00;2.72;;;;;;;;;;5133708;28;20301;-69
2022/09/13 15:20:23;;;;;;;3.17;2.90;;;;;;;;;;5135941;27;20309;-69
2022/09/13 15:22:52;;;;;;;3.10;2.80;;;;;;;;;;5138606;27;20298;-70
2022/09/13 15:25:21;;;;;;;2.97;2.78;;;;;;;;;;5137214;27;20293;-70
2022/09/13 15:27:49;;;;;;;3.33;2.90;;;;;;;;;;5138838;27;20263;-70
2022/09/13 15:30:27;;;;;;;2.90;2.63;;;;;;;;;;5138556;27;20234;-70
2022/09/13 15:33:16;;;;;;;3.38;3.08;;;;;;;;;;5138628;27;20304;-70
2022/09/13 15:35:44;;;;;;;3.08;2.75;;;;;;;;;;5116511;28;20311;-70
2022/09/13 15:38:19;;;;;;;2.85;2.65;;;;;;;;;;5117360;28;20285;-70
2022/09/13 15:40:47;;;;;;;2.83;2.63;;;;;;;;;;5118063;28;20234;-70
2022/09/13 15:43:15;;;;;;;2.72;2.53;;;;;;;;;;5116388;28;20234;-70
2022/09/13 15:45:42;;;;;;;2.85;2.58;;;;;;;;;;5117826;28;20230;-70
2022/09/13 15:48:18;;;;;;;2.90;2.70;;;;;;;;;;5116941;28;20207;-70
2022/09/13 15:50:52;;;;;;;2.80;2.58;;;;;;;;;;5118148;28;20886;-70